createdAt,value
2023-01-12T00:02:09.798Z,5.88
2023-01-12T00:04:38.369Z,5.30
2023-01-12T00:07:09.447Z,5.40
2023-01-12T00:09:40.726Z,5.20
2023-01-12T00:12:12.149Z,6.68
2023-01-12T00:14:40.647Z,6.60
2023-01-12T00:17:09.132Z,6.00
2023-01-12T00:19:38.881Z,6.05
2023-01-12T00:22:11.487Z,5.73
2023-01-12T00:24:40.903Z,6.50
2023-01-12T00:27:11.440Z,6.88
2023-01-12T00:29:39.870Z,6.32
2023-01-12T00:32:08.983Z,6.30
2023-01-12T00:34:36.926Z,6.20
2023-01-12T00:37:06.398Z,7.70
2023-01-12T00:39:40.444Z,7.88
2023-01-12T00:42:26.518Z,6.90
2023-01-12T00:45:12.201Z,6.53
2023-01-12T00:47:40.207Z,7.43
2023-01-12T00:50:08.960Z,8.13
2023-01-12T00:52:36.964Z,7.23
2023-01-12T00:55:07.171Z,7.30
2023-01-12T00:57:35.194Z,8.50
2023-01-12T01:00:03.176Z,6.87
2023-01-12T01:02:31.312Z,8.27
2023-01-12T01:04:59.261Z,8.30
2023-01-12T01:07:27.270Z,8.18
2023-01-12T01:09:55.258Z,8.98
2023-01-12T01:12:24.620Z,8.55
2023-01-12T01:14:53.490Z,8.67
2023-01-12T01:17:21.661Z,8.60
2023-01-12T01:19:49.678Z,7.90
2023-01-12T01:22:17.619Z,9.85
2023-01-12T01:24:45.587Z,10.23
2023-01-12T01:27:13.535Z,9.30
2023-01-12T01:29:42.941Z,9.13
2023-01-12T01:32:11.190Z,10.15
2023-01-12T01:34:39.232Z,9.35
2023-01-12T01:37:07.193Z,9.18
2023-01-12T01:39:35.169Z,9.70
2023-01-12T01:42:03.155Z,8.63
2023-01-12T01:44:55.017Z,8.35
2023-01-12T01:47:42.870Z,7.80
2023-01-12T01:50:17.306Z,7.68
2023-01-12T01:52:48.857Z,7.63
2023-01-12T01:55:21.437Z,7.28
2023-01-12T01:57:53.349Z,6.90
2023-01-12T02:00:25.074Z,6.00
2023-01-12T02:02:54.222Z,4.80
2023-01-12T02:05:26.035Z,4.80
2023-01-12T02:07:54.762Z,5.32
2023-01-12T02:10:22.965Z,5.40
2023-01-12T02:13:09.331Z,4.90
2023-01-12T02:16:03.848Z,3.70
2023-01-12T02:18:35.109Z,3.75
2023-01-12T02:21:20.180Z,3.63
2023-01-12T02:24:28.857Z,4.30
2023-01-12T02:27:23.451Z,3.50
2023-01-12T02:30:33.041Z,3.97
2023-01-12T02:33:17.226Z,3.83
2023-01-12T02:35:53.686Z,4.00
2023-01-12T02:38:32.258Z,4.28
2023-01-12T02:41:09.507Z,3.60
2023-01-12T02:43:40.049Z,4.20
2023-01-12T02:46:15.852Z,3.95
2023-01-12T02:48:51.428Z,4.05
2023-01-12T02:51:28.269Z,4.88
2023-01-12T02:54:01.418Z,4.03
2023-01-12T02:56:33.148Z,4.40
2023-01-12T02:59:05.223Z,4.27
2023-01-12T03:01:33.948Z,4.30
2023-01-12T03:04:07.458Z,4.97
2023-01-12T03:06:45.576Z,4.60
2023-01-12T03:09:15.635Z,4.35
2023-01-12T03:11:45.200Z,5.07
2023-01-12T03:14:15.351Z,4.68
2023-01-12T03:16:43.333Z,4.82
2023-01-12T03:19:17.230Z,5.78
2023-01-12T03:21:50.390Z,4.30
2023-01-12T03:24:25.969Z,4.47
2023-01-12T03:27:00.389Z,4.50
2023-01-12T03:29:34.020Z,4.43
2023-01-12T03:32:02.202Z,3.97
2023-01-12T03:34:32.799Z,4.40
2023-01-12T03:37:07.590Z,3.80
2023-01-12T03:39:43.342Z,3.20
2023-01-12T03:42:16.115Z,3.50
2023-01-12T03:44:53.915Z,3.40
2023-01-12T03:47:26.121Z,4.30
2023-01-12T03:49:59.453Z,3.20
2023-01-12T03:52:28.510Z,3.38
2023-01-12T03:54:59.492Z,3.40
2023-01-12T03:57:27.903Z,3.63
2023-01-12T03:59:57.938Z,3.78
2023-01-12T04:02:25.919Z,3.53
2023-01-12T04:04:55.254Z,3.65
2023-01-12T04:07:23.749Z,3.40
2023-01-12T04:09:51.677Z,3.45
2023-01-12T04:12:19.640Z,2.90
2023-01-12T04:14:48.670Z,2.65
2023-01-12T04:17:17.055Z,2.40
2023-01-12T04:19:44.993Z,3.00
2023-01-12T04:22:34.436Z,2.20
2023-01-12T04:25:02.436Z,2.45
2023-01-12T04:27:30.511Z,2.60
2023-01-12T04:29:58.643Z,2.72
2023-01-12T04:32:26.613Z,2.33
2023-01-12T04:34:54.581Z,2.20
2023-01-12T04:37:24.108Z,2.58
2023-01-12T04:39:52.101Z,3.20
2023-01-12T04:42:42.962Z,3.40
2023-01-12T04:45:11.527Z,2.83
2023-01-12T04:47:39.442Z,2.80
2023-01-12T04:50:08.275Z,2.80
2023-01-12T04:52:38.447Z,2.40
2023-01-12T04:55:07.089Z,3.40
2023-01-12T04:57:35.135Z,2.80
2023-01-12T05:00:03.140Z,2.33
2023-01-12T05:02:31.078Z,2.50
2023-01-12T05:04:58.994Z,2.67
2023-01-12T05:07:26.922Z,2.58
2023-01-12T05:10:13.599Z,2.83
2023-01-12T05:12:41.656Z,1.48
2023-01-12T05:15:10.336Z,1.80
2023-01-12T05:17:38.431Z,1.60
2023-01-12T05:20:07.491Z,2.10
2023-01-12T05:22:35.528Z,2.00
2023-01-12T05:25:05.216Z,2.72
2023-01-12T05:27:33.201Z,1.90
2023-01-12T05:30:01.206Z,1.95
2023-01-12T05:32:29.149Z,1.83
2023-01-12T05:34:57.075Z,1.55
2023-01-12T05:37:24.974Z,1.70
2023-01-12T05:39:52.909Z,1.90
2023-01-12T05:42:39.624Z,1.70
2023-01-12T05:45:08.851Z,1.30
2023-01-12T05:47:36.839Z,1.33
2023-01-12T05:50:05.362Z,1.08
2023-01-12T05:52:33.317Z,1.20
2023-01-12T05:55:01.294Z,1.80
2023-01-12T05:57:32.156Z,1.40
2023-01-12T06:00:00.060Z,1.40
2023-01-12T06:02:28.756Z,1.57
2023-01-12T06:04:56.762Z,1.40
2023-01-12T06:07:24.758Z,2.08
2023-01-12T06:09:52.712Z,2.80
2023-01-12T06:12:38.051Z,2.35
2023-01-12T06:15:08.361Z,2.55
2023-01-12T06:17:36.338Z,3.10
2023-01-12T06:20:04.406Z,2.50
2023-01-12T06:22:32.458Z,3.80
2023-01-12T06:25:00.454Z,3.33
2023-01-12T06:27:31.958Z,3.70
2023-01-12T06:29:59.904Z,3.60
2023-01-12T06:32:30.749Z,3.70
2023-01-12T06:35:04.044Z,3.20
2023-01-12T06:37:35.290Z,3.78
2023-01-12T06:40:03.329Z,3.70
2023-01-12T06:42:31.647Z,3.87
2023-01-12T06:45:00.852Z,4.00
2023-01-12T06:47:31.071Z,3.40
2023-01-12T06:49:59.490Z,5.05
2023-01-12T06:52:29.855Z,4.82
2023-01-12T06:54:59.298Z,4.50
2023-01-12T06:57:27.338Z,4.30
2023-01-12T06:59:56.457Z,4.05
2023-01-12T07:02:24.459Z,5.10
2023-01-12T07:04:53.874Z,5.40
2023-01-12T07:07:21.793Z,5.70
2023-01-12T07:09:49.778Z,5.10
2023-01-12T07:12:17.775Z,4.90
2023-01-12T07:14:45.790Z,6.55
2023-01-12T07:17:13.779Z,4.90
2023-01-12T07:19:42.300Z,5.60
2023-01-12T07:22:11.695Z,6.10
2023-01-12T07:24:39.601Z,5.30
2023-01-12T07:27:07.669Z,6.10
2023-01-12T07:29:35.641Z,5.35
2023-01-12T07:32:03.578Z,6.00
2023-01-12T07:34:31.579Z,6.07
2023-01-12T07:36:59.514Z,5.43
2023-01-12T07:39:28.801Z,5.43
2023-01-12T07:42:14.142Z,6.00
2023-01-12T07:44:42.184Z,5.03
2023-01-12T07:47:10.177Z,5.40
2023-01-12T07:49:38.351Z,5.30
2023-01-12T07:52:06.723Z,5.73
2023-01-12T07:54:36.389Z,4.72
2023-01-12T07:57:04.445Z,5.00
2023-01-12T07:59:32.448Z,5.25
2023-01-12T08:02:00.513Z,5.85
2023-01-12T08:04:28.536Z,5.65
2023-01-12T08:06:57.067Z,6.13
2023-01-12T08:09:25.341Z,6.07
2023-01-12T08:11:54.674Z,6.22
2023-01-12T08:14:28.041Z,5.00
2023-01-12T08:17:01.520Z,4.97
2023-01-12T08:19:37.177Z,6.90
2023-01-12T08:22:08.459Z,6.25
2023-01-12T08:24:41.256Z,5.50
2023-01-12T08:27:11.704Z,5.88
2023-01-12T08:29:44.199Z,5.65
2023-01-12T08:32:14.073Z,6.78
2023-01-12T08:34:44.922Z,6.28
2023-01-12T08:37:16.495Z,6.13
2023-01-12T08:39:44.853Z,7.47
2023-01-12T08:42:14.595Z,7.10
2023-01-12T08:44:42.851Z,6.00
2023-01-12T08:47:17.397Z,6.23
2023-01-12T08:49:46.122Z,6.75
2023-01-12T08:52:14.667Z,6.50
2023-01-12T08:54:42.837Z,5.35
2023-01-12T08:57:10.817Z,5.25
2023-01-12T08:59:40.373Z,5.40
2023-01-12T09:02:08.607Z,5.57
2023-01-12T09:04:39.525Z,7.20
2023-01-12T09:07:07.766Z,6.10
2023-01-12T09:09:35.973Z,6.25
2023-01-12T09:12:04.205Z,6.23
2023-01-12T09:14:32.186Z,7.23
2023-01-12T09:17:01.619Z,7.10
2023-01-12T09:19:29.642Z,7.10
2023-01-12T09:21:57.560Z,6.35
2023-01-12T09:24:25.526Z,6.50
2023-01-12T09:26:53.494Z,6.45
2023-01-12T09:29:21.484Z,6.47
2023-01-12T09:31:49.537Z,7.00
2023-01-12T09:34:18.950Z,7.28
2023-01-12T09:36:46.914Z,8.05
2023-01-12T09:39:32.520Z,7.40
2023-01-12T09:42:18.194Z,7.00
2023-01-12T09:45:05.627Z,6.93
2023-01-12T09:47:37.130Z,8.07
2023-01-12T09:50:11.173Z,7.15
2023-01-12T09:52:43.010Z,7.28
2023-01-12T09:55:18.035Z,6.60
2023-01-12T09:58:07.561Z,5.43
2023-01-12T10:00:35.568Z,5.90
2023-01-12T10:03:13.309Z,6.80
2023-01-12T10:05:46.367Z,6.15
2023-01-12T10:08:18.889Z,5.80
2023-01-12T10:10:58.774Z,5.20
2023-01-12T10:13:34.955Z,6.63
2023-01-12T10:16:13.169Z,5.73
2023-01-12T10:18:47.557Z,6.70
2023-01-12T10:21:17.112Z,5.93
2023-01-12T10:23:45.908Z,5.38
2023-01-12T10:26:21.093Z,4.85
2023-01-12T10:28:52.367Z,5.90
2023-01-12T10:31:23.449Z,5.35
2023-01-12T10:34:06.953Z,6.05
2023-01-12T10:36:38.416Z,6.20
2023-01-12T10:39:23.711Z,6.50
2023-01-12T10:42:35.852Z,6.60
2023-01-12T10:45:20.794Z,6.80
2023-01-12T10:47:50.630Z,7.13
2023-01-12T10:50:24.293Z,6.10
2023-01-12T10:52:59.629Z,7.35
2023-01-12T10:55:32.792Z,6.03
2023-01-12T10:58:01.559Z,6.00
2023-01-12T11:00:30.902Z,5.55
2023-01-12T11:02:59.178Z,5.63
2023-01-12T11:05:30.382Z,6.05
2023-01-12T11:07:59.865Z,6.53
2023-01-12T11:10:30.143Z,5.90
2023-01-12T11:12:59.854Z,5.47
2023-01-12T11:15:29.652Z,5.05
2023-01-12T11:18:27.632Z,6.35
2023-01-12T11:21:00.808Z,6.25
2023-01-12T11:23:35.492Z,5.25
2023-01-12T11:26:09.554Z,5.00
2023-01-12T11:28:43.691Z,5.38
2023-01-12T11:31:17.561Z,5.82
2023-01-12T11:33:50.543Z,5.45
2023-01-12T11:36:21.581Z,5.57
2023-01-12T11:38:54.692Z,6.55
2023-01-12T11:41:26.735Z,7.65
2023-01-12T11:44:01.063Z,6.03
2023-01-12T11:46:35.955Z,6.30
2023-01-12T11:49:11.904Z,6.10
2023-01-12T11:51:40.426Z,7.27
2023-01-12T11:54:16.036Z,7.03
2023-01-12T11:57:12.839Z,6.18
2023-01-12T11:59:49.632Z,6.78
2023-01-12T12:02:32.962Z,5.78
2023-01-12T12:05:11.337Z,6.38
2023-01-12T12:08:03.536Z,6.35
2023-01-12T12:10:40.982Z,6.88
2023-01-12T12:13:29.748Z,6.07
2023-01-12T12:16:10.699Z,5.60
2023-01-12T12:18:52.025Z,6.35
2023-01-12T12:21:37.358Z,5.13
2023-01-12T12:24:13.519Z,6.07
2023-01-12T12:26:57.925Z,5.63
2023-01-12T12:29:40.954Z,5.40
2023-01-12T12:32:23.359Z,4.70
2023-01-12T12:35:14.369Z,4.80
2023-01-12T12:37:51.760Z,4.77
2023-01-12T12:40:57.249Z,3.70
2023-01-12T12:43:49.375Z,3.80
2023-01-12T12:46:24.895Z,3.38
2023-01-12T12:48:59.399Z,2.67
2023-01-12T12:51:30.933Z,2.20
2023-01-12T12:54:00.946Z,2.05
2023-01-12T12:56:31.927Z,2.25
2023-01-12T12:59:02.568Z,1.83
2023-01-12T13:01:43.356Z,2.03
2023-01-12T13:04:12.999Z,1.88
2023-01-12T13:06:45.936Z,1.30
2023-01-12T13:09:41.337Z,2.03
2023-01-12T13:12:33.957Z,1.95
2023-01-12T13:15:26.860Z,1.70
2023-01-12T13:17:55.649Z,1.40
2023-01-12T13:21:02.291Z,1.50
2023-01-12T13:23:46.700Z,1.27
2023-01-12T13:26:52.279Z,1.73
2023-01-12T13:29:42.083Z,1.63
2023-01-12T13:32:41.339Z,1.90
2023-01-12T13:35:56.140Z,1.70
2023-01-12T13:38:56.558Z,2.20
2023-01-12T13:41:45.521Z,3.35
2023-01-12T13:44:21.338Z,2.30
2023-01-12T13:46:51.325Z,2.35
2023-01-12T13:49:30.028Z,2.20
2023-01-12T13:52:00.825Z,2.40
2023-01-12T13:54:30.008Z,2.85
2023-01-12T13:56:59.966Z,2.30
2023-01-12T13:59:30.057Z,1.80
2023-01-12T14:01:58.769Z,1.40
2023-01-12T14:05:08.080Z,1.50
2023-01-12T14:07:52.787Z,1.50
2023-01-12T14:10:38.853Z,2.20
2023-01-12T14:13:31.162Z,1.20
2023-01-12T14:16:20.769Z,1.45
2023-01-12T14:18:50.684Z,1.35
2023-01-12T14:21:25.048Z,1.70
2023-01-12T14:23:55.156Z,2.08
2023-01-12T14:26:27.142Z,1.77
2023-01-12T14:28:55.180Z,1.70
2023-01-12T14:31:27.979Z,1.20
2023-01-12T14:33:58.187Z,1.40
2023-01-12T14:36:29.306Z,2.20
2023-01-12T14:39:00.218Z,2.13
2023-01-12T14:42:02.307Z,2.08
2023-01-12T14:44:47.891Z,1.90
2023-01-12T14:47:24.816Z,2.60
2023-01-12T14:49:52.877Z,2.22
2023-01-12T14:52:26.080Z,2.00
2023-01-12T14:54:55.471Z,1.73
2023-01-12T14:57:29.480Z,1.90
2023-01-12T14:59:57.959Z,1.33
2023-01-12T15:02:32.654Z,1.50
2023-01-12T15:05:02.907Z,1.02
2023-01-12T15:07:35.564Z,1.50
2023-01-12T15:10:21.116Z,2.30
2023-01-12T15:12:53.991Z,1.20
2023-01-12T15:15:24.172Z,1.20
2023-01-12T15:18:11.275Z,1.40
2023-01-12T15:20:58.791Z,1.10
2023-01-12T15:23:47.467Z,1.70
2023-01-12T15:26:17.082Z,1.10
2023-01-12T15:28:46.044Z,1.30
2023-01-12T15:31:20.233Z,1.10
2023-01-12T15:33:48.535Z,1.40
2023-01-12T15:36:16.683Z,1.70
2023-01-12T15:38:44.707Z,1.83
2023-01-12T15:41:40.398Z,1.85
2023-01-12T15:44:13.183Z,1.50
2023-01-12T15:46:41.645Z,1.90
2023-01-12T15:49:10.347Z,2.10
2023-01-12T15:51:38.400Z,1.80
2023-01-12T15:54:08.364Z,2.90
2023-01-12T15:56:37.652Z,2.50
2023-01-12T15:59:05.957Z,1.60
2023-01-12T16:01:38.385Z,1.48
2023-01-12T16:04:40.316Z,1.15
2023-01-12T16:06:55.572Z,1.30
2023-01-12T16:09:23.549Z,2.03
2023-01-12T16:11:52.921Z,2.10
2023-01-12T16:14:20.853Z,1.63
2023-01-12T16:16:49.162Z,1.40
2023-01-12T16:19:22.334Z,1.33
2023-01-12T16:21:50.441Z,1.50
2023-01-12T16:24:18.452Z,2.30
2023-01-12T16:26:47.354Z,2.37
2023-01-12T16:29:16.671Z,1.63
2023-01-12T16:31:45.677Z,2.00
2023-01-12T16:34:13.825Z,1.20
2023-01-12T16:36:42.412Z,1.70
2023-01-12T16:39:12.856Z,2.10
2023-01-12T16:41:41.099Z,2.40
2023-01-12T16:44:10.166Z,1.90
2023-01-12T16:46:39.565Z,1.90
2023-01-12T16:49:07.553Z,2.00
2023-01-12T16:51:35.711Z,2.03
2023-01-12T16:54:04.733Z,2.80
2023-01-12T16:56:33.053Z,3.00
2023-01-12T16:59:01.051Z,2.45
2023-01-12T17:01:29.201Z,1.90
2023-01-12T17:03:58.859Z,2.40
2023-01-12T17:06:29.016Z,2.50
2023-01-12T17:08:57.513Z,2.80
2023-01-12T17:11:27.546Z,2.90
2023-01-12T17:13:58.307Z,2.00
2023-01-12T17:16:29.383Z,2.50
2023-01-12T17:18:58.940Z,1.70
2023-01-12T17:21:27.226Z,2.50
2023-01-12T17:23:55.670Z,3.08
2023-01-12T17:26:24.056Z,2.47
2023-01-12T17:28:52.138Z,2.20
2023-01-12T17:31:21.073Z,2.80
2023-01-12T17:33:50.116Z,2.28
2023-01-12T17:36:20.078Z,2.60
2023-01-12T17:38:48.103Z,2.70
2023-01-12T17:41:31.477Z,1.55
2023-01-12T17:43:59.549Z,1.90
2023-01-12T17:46:28.006Z,1.92
2023-01-12T17:48:58.454Z,2.80
2023-01-12T17:51:27.831Z,2.83
2023-01-12T17:53:56.071Z,3.00
2023-01-12T17:56:24.320Z,2.60
2023-01-12T17:58:52.589Z,2.50
2023-01-12T18:01:21.901Z,2.97
2023-01-12T18:03:49.965Z,2.58
2023-01-12T18:06:25.754Z,2.58
2023-01-12T18:08:57.274Z,2.40
2023-01-12T18:11:25.660Z,2.40
2023-01-12T18:13:54.289Z,2.30
2023-01-12T18:16:22.836Z,1.70
2023-01-12T18:18:51.595Z,2.00
2023-01-12T18:21:21.630Z,1.90
2023-01-12T18:23:51.088Z,3.10
2023-01-12T18:26:22.083Z,2.53
2023-01-12T18:28:50.075Z,2.00
2023-01-12T18:31:19.948Z,2.40
2023-01-12T18:33:48.583Z,3.05
2023-01-12T18:36:18.919Z,2.78
2023-01-12T18:38:47.062Z,2.50
2023-01-12T18:41:32.814Z,2.40
2023-01-12T18:44:02.567Z,2.00
2023-01-12T18:46:50.828Z,2.10
2023-01-12T18:49:21.513Z,3.45
2023-01-12T18:52:07.102Z,3.55
2023-01-12T18:54:35.759Z,2.70
2023-01-12T18:57:03.743Z,3.10
2023-01-12T18:59:33.302Z,3.35
2023-01-12T19:02:01.324Z,2.80
2023-01-12T19:04:52.471Z,3.60
2023-01-12T19:07:29.834Z,3.63
2023-01-12T19:09:57.876Z,3.10
2023-01-12T19:12:26.282Z,2.80
2023-01-12T19:15:13.290Z,2.40
2023-01-12T19:17:42.164Z,2.45
2023-01-12T19:20:14.831Z,3.22
2023-01-12T19:23:00.527Z,3.33
2023-01-12T19:25:46.134Z,2.50
2023-01-12T19:28:35.630Z,2.70
2023-01-12T19:31:07.080Z,2.70
2023-01-12T19:33:35.290Z,2.60
2023-01-12T19:36:06.730Z,2.58
2023-01-12T19:38:35.863Z,2.70
2023-01-12T19:41:11.623Z,2.22
2023-01-12T19:43:41.754Z,2.15
2023-01-12T19:46:12.864Z,3.15
2023-01-12T19:48:41.135Z,2.97
2023-01-12T19:51:11.356Z,2.00
2023-01-12T19:53:40.436Z,2.70
2023-01-12T19:56:10.324Z,2.70
2023-01-12T19:58:38.310Z,3.20
2023-01-12T20:01:06.557Z,3.05
2023-01-12T20:03:36.291Z,2.33
2023-01-12T20:06:07.504Z,2.78
2023-01-12T20:08:35.477Z,2.88
2023-01-12T20:11:05.430Z,2.70
2023-01-12T20:13:34.798Z,3.40
2023-01-12T20:16:07.003Z,2.80
2023-01-12T20:18:36.370Z,2.00
2023-01-12T20:21:09.144Z,2.20
2023-01-12T20:23:37.368Z,1.80
2023-01-12T20:26:07.735Z,2.35
2023-01-12T20:28:35.872Z,2.10
2023-01-12T20:31:10.271Z,2.00
2023-01-12T20:33:39.820Z,1.50
2023-01-12T20:36:11.680Z,1.60
2023-01-12T20:38:40.758Z,2.00
2023-01-12T20:41:09.331Z,1.70
2023-01-12T20:43:37.873Z,2.58
2023-01-12T20:46:08.509Z,2.50
2023-01-12T20:48:36.488Z,1.80
2023-01-12T20:51:08.885Z,1.95
2023-01-12T20:53:37.020Z,2.50
2023-01-12T20:56:05.688Z,2.85
2023-01-12T20:58:34.072Z,3.50
2023-01-12T21:01:02.357Z,2.67
2023-01-12T21:03:30.598Z,2.53
2023-01-12T21:05:59.939Z,2.40
2023-01-12T21:08:29.517Z,3.08
2023-01-12T21:11:00.372Z,3.00
2023-01-12T21:13:28.336Z,2.42
2023-01-12T21:16:01.311Z,2.50
2023-01-12T21:18:29.819Z,2.45
2023-01-12T21:20:58.163Z,3.38
2023-01-12T21:23:26.980Z,2.92
2023-01-12T21:25:56.426Z,3.30
2023-01-12T21:28:25.048Z,3.55
2023-01-12T21:30:53.042Z,4.28
2023-01-12T21:33:21.041Z,3.88
2023-01-12T21:35:56.002Z,3.70
2023-01-12T21:38:24.491Z,3.50
2023-01-12T21:40:52.541Z,5.05
2023-01-12T21:43:21.866Z,3.78
2023-01-12T21:45:53.032Z,3.75
2023-01-12T21:48:22.485Z,4.15
2023-01-12T21:50:50.931Z,3.80
2023-01-12T21:53:21.154Z,4.93
2023-01-12T21:55:56.774Z,5.35
2023-01-12T21:58:27.631Z,4.57
2023-01-12T22:00:55.999Z,4.88
2023-01-12T22:03:25.019Z,5.10
2023-01-12T22:05:52.998Z,4.53
2023-01-12T22:08:21.117Z,5.47
2023-01-12T22:10:49.217Z,6.35
2023-01-12T22:13:18.573Z,6.03
2023-01-12T22:15:50.931Z,4.90
2023-01-12T22:18:19.013Z,5.30
2023-01-12T22:20:48.785Z,5.63
2023-01-12T22:23:16.745Z,6.10
2023-01-12T22:25:44.755Z,6.32
2023-01-12T22:28:12.742Z,5.95
2023-01-12T22:30:43.128Z,6.78
2023-01-12T22:33:12.781Z,5.70
2023-01-12T22:35:40.736Z,6.38
2023-01-12T22:38:08.670Z,7.70
2023-01-12T22:40:36.651Z,6.65
2023-01-12T22:43:22.376Z,6.88
2023-01-12T22:45:54.912Z,6.95
2023-01-12T22:48:24.415Z,6.70
2023-01-12T22:50:54.465Z,6.78
2023-01-12T22:53:24.105Z,7.28
2023-01-12T22:55:52.107Z,7.18
2023-01-12T22:58:20.112Z,6.63
2023-01-12T23:00:48.701Z,6.63
2023-01-12T23:03:16.731Z,6.90
2023-01-12T23:05:47.649Z,8.20
2023-01-12T23:08:16.963Z,7.13
2023-01-12T23:10:45.588Z,7.68
2023-01-12T23:13:19.296Z,7.30
2023-01-12T23:15:50.014Z,6.78
2023-01-12T23:18:20.867Z,7.05
2023-01-12T23:20:50.461Z,7.23
2023-01-12T23:23:18.850Z,7.68
2023-01-12T23:25:47.984Z,5.82
2023-01-12T23:28:16.119Z,7.15
2023-01-12T23:30:44.237Z,5.95
2023-01-12T23:33:12.255Z,6.35
2023-01-12T23:35:42.511Z,6.47
2023-01-12T23:38:15.790Z,6.87
2023-01-12T23:40:43.798Z,6.20
2023-01-12T23:43:11.743Z,7.70
2023-01-12T23:45:39.733Z,5.75
2023-01-12T23:48:08.223Z,7.80
2023-01-12T23:50:36.190Z,7.00
2023-01-12T23:53:04.129Z,6.20
2023-01-12T23:55:33.519Z,6.25
2023-01-12T23:58:02.215Z,5.07
